createdAt,value
2023-04-02T00:03:00.054Z,76.46
2023-04-02T00:06:40.543Z,77.07
2023-04-02T00:09:57.479Z,76.77
2023-04-02T00:13:51.947Z,77.01
2023-04-02T00:17:24.887Z,77.24
2023-04-02T00:21:12.784Z,77.06
2023-04-02T00:24:35.479Z,77.10
2023-04-02T00:28:18.127Z,76.74
2023-04-02T00:31:53.825Z,76.84
2023-04-02T00:35:30.493Z,77.26
2023-04-02T00:39:13.575Z,76.73
2023-04-02T00:42:46.506Z,77.17
2023-04-02T00:46:24.300Z,77.46
2023-04-02T00:50:29.094Z,77.69
2023-04-02T00:53:45.449Z,77.67
2023-04-02T00:57:38.799Z,77.68
2023-04-02T01:01:24.212Z,77.71
2023-04-02T01:04:57.154Z,77.63
2023-04-02T01:08:28.226Z,77.84
2023-04-02T01:12:42.837Z,77.89
2023-04-02T01:15:40.611Z,77.86
2023-04-02T01:19:45.064Z,78.01
2023-04-02T01:23:35.599Z,78.09
2023-04-02T01:27:24.801Z,77.80
2023-04-02T01:31:06.475Z,77.80
2023-04-02T01:34:36.455Z,78.12
2023-04-02T01:38:25.923Z,77.52
2023-04-02T01:42:17.338Z,77.89
2023-04-02T01:45:48.502Z,77.45
2023-04-02T01:49:27.281Z,77.71
2023-04-02T01:53:03.752Z,77.41
2023-04-02T01:56:47.334Z,77.59
2023-04-02T02:00:37.638Z,77.59
2023-04-02T02:04:11.212Z,77.54
2023-04-02T02:07:57.442Z,77.76
2023-04-02T02:11:42.438Z,77.87
2023-04-02T02:15:45.103Z,78.06
2023-04-02T02:19:23.005Z,77.73
2023-04-02T02:22:44.196Z,77.47
2023-04-02T02:26:29.204Z,77.40
2023-04-02T02:30:18.308Z,77.19
2023-04-02T02:34:06.324Z,77.24
2023-04-02T02:37:52.388Z,77.42
2023-04-02T02:41:42.914Z,77.42
2023-04-02T02:45:31.258Z,77.72
2023-04-02T02:49:07.640Z,77.67
2023-04-02T02:53:05.643Z,77.58
2023-04-02T02:56:18.811Z,77.71
2023-04-02T03:00:06.882Z,78.15
2023-04-02T03:03:51.589Z,77.79
2023-04-02T03:07:40.468Z,78.11
2023-04-02T03:11:17.594Z,78.02
2023-04-02T03:15:06.989Z,78.05
2023-04-02T03:19:23.610Z,78.18
2023-04-02T03:22:35.424Z,78.39
2023-04-02T03:26:24.649Z,78.32
2023-04-02T03:30:09.104Z,77.91
2023-04-02T03:33:49.119Z,78.51
2023-04-02T03:37:19.045Z,78.25
2023-04-02T03:41:01.898Z,78.31
2023-04-02T03:44:31.601Z,78.48
2023-04-02T03:48:19.779Z,78.06
2023-04-02T03:52:25.794Z,77.83
2023-04-02T03:55:52.638Z,77.64
2023-04-02T03:59:50.345Z,77.75
2023-04-02T04:02:59.271Z,77.75
2023-04-02T04:06:46.560Z,77.75
2023-04-02T04:10:32.078Z,77.71
2023-04-02T04:14:31.604Z,77.69
2023-04-02T04:18:02.435Z,77.68
2023-04-02T04:21:57.995Z,77.61
2023-04-02T04:25:44.592Z,77.75
2023-04-02T04:29:27.506Z,77.61
2023-04-02T04:32:58.282Z,77.55
2023-04-02T04:36:29.105Z,77.68
2023-04-02T04:40:23.867Z,77.53
2023-04-02T04:44:23.416Z,77.50
2023-04-02T04:48:06.863Z,77.81
2023-04-02T04:51:29.068Z,77.38
2023-04-02T04:55:07.077Z,77.54
2023-04-02T04:58:52.166Z,77.37
2023-04-02T05:02:18.824Z,77.59
2023-04-02T05:06:19.021Z,77.45
2023-04-02T05:09:45.436Z,77.54
2023-04-02T05:13:34.240Z,77.42
2023-04-02T05:17:21.035Z,77.15
2023-04-02T05:20:39.133Z,77.35
2023-04-02T05:25:01.605Z,77.28
2023-04-02T05:28:55.807Z,77.35
2023-04-02T05:32:41.460Z,77.50
2023-04-02T05:36:24.475Z,77.12
2023-04-02T05:40:22.522Z,77.28
2023-04-02T05:44:04.048Z,77.47
2023-04-02T05:47:24.346Z,77.59
2023-04-02T05:50:52.384Z,77.27
2023-04-02T05:54:23.843Z,77.15
2023-04-02T06:01:40.427Z,77.13
2023-04-02T06:05:16.867Z,77.24
2023-04-02T06:08:54.160Z,77.33
2023-04-02T06:12:42.760Z,77.15
2023-04-02T06:16:30.400Z,77.21
2023-04-02T06:20:15.863Z,76.99
2023-04-02T06:23:37.360Z,76.85
2023-04-02T06:27:28.204Z,76.58
2023-04-02T06:30:47.909Z,76.60
2023-04-02T06:34:33.206Z,76.92
2023-04-02T06:38:25.322Z,76.97
2023-04-02T06:42:28.351Z,76.60
2023-04-02T06:45:49.578Z,76.56
2023-04-02T06:49:30.774Z,77.00
2023-04-02T06:53:10.151Z,77.13
2023-04-02T06:56:46.714Z,77.25
2023-04-02T07:00:27.457Z,77.53
2023-04-02T07:03:54.397Z,77.10
2023-04-02T07:07:48.124Z,77.38
2023-04-02T07:11:26.306Z,76.95
2023-04-02T07:15:00.115Z,76.82
2023-04-02T07:18:46.553Z,76.65
2023-04-02T07:22:22.998Z,76.39
2023-04-02T07:26:10.711Z,76.43
2023-04-02T07:29:55.132Z,77.01
2023-04-02T07:33:42.134Z,77.44
2023-04-02T07:37:20.838Z,77.69
2023-04-02T07:40:52.997Z,77.94
2023-04-02T07:44:37.622Z,78.14
2023-04-02T07:48:22.125Z,78.72
2023-04-02T07:52:15.737Z,78.35
2023-04-02T07:55:44.492Z,78.41
2023-04-02T07:59:36.891Z,77.33
2023-04-02T08:03:07.034Z,77.37
2023-04-02T08:06:53.032Z,77.08
2023-04-02T08:10:38.618Z,76.29
2023-04-02T08:14:15.166Z,75.47
2023-04-02T08:17:58.784Z,75.13
2023-04-02T08:21:43.284Z,73.59
2023-04-02T08:25:28.880Z,73.47
2023-04-02T08:29:13.632Z,73.44
2023-04-02T08:32:42.128Z,72.70
2023-04-02T08:36:30.689Z,72.15
2023-04-02T08:40:24.051Z,72.62
2023-04-02T08:44:38.779Z,72.32
2023-04-02T08:48:00.335Z,72.23
2023-04-02T08:51:27.923Z,72.24
2023-04-02T08:55:01.627Z,71.83
2023-04-02T08:58:48.285Z,71.81
2023-04-02T09:02:47.076Z,72.22
2023-04-02T09:06:16.446Z,71.89
2023-04-02T09:09:48.612Z,72.09
2023-04-02T09:13:38.944Z,72.10
2023-04-02T09:17:20.083Z,72.52
2023-04-02T09:20:49.407Z,72.69
2023-04-02T09:24:33.906Z,72.43
2023-04-02T09:28:20.440Z,72.13
2023-04-02T09:32:01.154Z,72.55
2023-04-02T09:36:03.046Z,72.74
2023-04-02T09:39:26.383Z,72.70
2023-04-02T09:43:15.846Z,72.39
2023-04-02T09:47:28.186Z,72.31
2023-04-02T09:50:46.240Z,72.07
2023-04-02T09:54:33.412Z,71.91
2023-04-02T09:58:12.232Z,72.49
2023-04-02T10:01:34.259Z,72.40
2023-04-02T10:05:39.387Z,72.08
2023-04-02T10:08:48.545Z,71.95
2023-04-02T10:12:39.609Z,71.80
2023-04-02T10:16:05.014Z,72.06
2023-04-02T10:19:51.873Z,71.71
2023-04-02T10:23:37.651Z,71.90
2023-04-02T10:27:26.215Z,72.48
2023-04-02T10:31:13.655Z,72.63
2023-04-02T10:35:01.832Z,71.96
2023-04-02T10:38:51.021Z,72.46
2023-04-02T10:42:40.272Z,72.01
2023-04-02T10:46:18.770Z,71.73
2023-04-02T10:50:31.224Z,71.42
2023-04-02T10:53:45.355Z,72.06
2023-04-02T10:57:40.641Z,71.58
2023-04-02T11:01:29.409Z,71.59
2023-04-02T11:05:20.186Z,71.78
2023-04-02T11:09:07.443Z,71.69
2023-04-02T11:12:57.859Z,72.25
2023-04-02T11:16:29.890Z,71.76
2023-04-02T11:20:58.344Z,71.88
2023-04-02T11:25:22.013Z,71.91
2023-04-02T11:28:30.611Z,72.49
2023-04-02T11:32:28.325Z,72.69
2023-04-02T11:36:47.507Z,72.49
2023-04-02T11:40:54.427Z,73.08
2023-04-02T11:44:25.196Z,73.27
2023-04-02T11:48:33.417Z,73.91
2023-04-02T11:51:56.396Z,73.98
2023-04-02T11:55:24.518Z,74.28
2023-04-02T11:58:54.273Z,74.39
2023-04-02T12:02:42.875Z,74.51
2023-04-02T12:06:59.279Z,74.40
2023-04-02T12:10:23.344Z,74.73
2023-04-02T12:13:58.551Z,75.13
2023-04-02T12:17:45.042Z,75.31
2023-04-02T12:21:47.629Z,75.84
2023-04-02T12:25:03.961Z,76.07
2023-04-02T12:28:50.935Z,76.58
2023-04-02T12:32:23.227Z,76.75
2023-04-02T12:36:16.683Z,76.89
2023-04-02T12:40:07.438Z,77.23
2023-04-02T12:43:49.850Z,77.85
2023-04-02T12:47:32.706Z,77.95
2023-04-02T12:51:20.734Z,77.77
2023-04-02T12:54:56.485Z,78.06
2023-04-02T12:58:42.853Z,77.59
2023-04-02T13:02:45.589Z,77.84
2023-04-02T13:06:32.611Z,77.92
2023-04-02T13:09:46.298Z,76.98
2023-04-02T13:13:48.475Z,78.08
2023-04-02T13:17:39.036Z,78.23
2023-04-02T13:21:38.364Z,78.31
2023-04-02T13:25:01.221Z,78.62
2023-04-02T13:28:51.792Z,78.86
2023-04-02T13:32:36.372Z,78.77
2023-04-02T13:36:15.753Z,78.75
2023-04-02T13:39:58.337Z,78.77
2023-04-02T13:43:53.360Z,78.87
2023-04-02T13:47:20.810Z,78.77
2023-04-02T13:51:04.728Z,79.11
2023-04-02T13:54:55.435Z,79.41
2023-04-02T13:58:41.851Z,79.42
2023-04-02T14:02:17.712Z,79.50
2023-04-02T14:05:49.484Z,79.26
2023-04-02T14:09:28.890Z,78.45
2023-04-02T14:13:09.257Z,78.67
2023-04-02T14:17:03.209Z,78.22
2023-04-02T14:20:54.615Z,79.00
2023-04-02T14:24:48.663Z,78.84
2023-04-02T14:28:22.346Z,78.63
2023-04-02T14:32:09.883Z,78.84
2023-04-02T14:36:16.740Z,78.95
2023-04-02T14:39:46.577Z,79.26
2023-04-02T14:43:12.181Z,79.42
2023-04-02T14:47:00.299Z,79.27
2023-04-02T14:50:45.627Z,79.39
2023-04-02T14:54:34.958Z,79.39
2023-04-02T14:58:11.361Z,79.75
2023-04-02T15:02:00.289Z,80.00
2023-04-02T15:05:39.631Z,80.20
2023-04-02T15:09:11.749Z,80.06
2023-04-02T15:12:58.211Z,79.66
2023-04-02T15:17:11.236Z,80.40
2023-04-02T15:20:22.253Z,80.60
2023-04-02T15:24:21.741Z,80.74
2023-04-02T15:27:56.138Z,81.57
2023-04-02T15:31:22.480Z,81.39
2023-04-02T15:35:36.609Z,81.38
2023-04-02T15:38:47.100Z,81.41
2023-04-02T15:42:34.402Z,81.90
2023-04-02T15:46:51.772Z,82.09
2023-04-02T15:50:23.207Z,81.81
2023-04-02T15:53:38.986Z,81.96
2023-04-02T15:57:39.872Z,82.07
2023-04-02T16:01:09.837Z,82.14
2023-04-02T16:05:00.893Z,82.30
2023-04-02T16:08:40.867Z,82.00
2023-04-02T16:12:17.347Z,82.02
2023-04-02T16:15:50.684Z,82.21
2023-04-02T16:19:30.292Z,82.29
2023-04-02T16:23:07.065Z,82.29
2023-04-02T16:26:59.415Z,82.41
2023-04-02T16:30:40.091Z,82.64
2023-04-02T16:34:17.175Z,82.77
2023-04-02T16:37:44.191Z,82.80
2023-04-02T16:41:23.685Z,82.84
2023-04-02T16:44:58.585Z,83.09
2023-04-02T16:48:55.045Z,82.94
2023-04-02T16:52:35.460Z,83.29
2023-04-02T16:56:12.997Z,83.52
2023-04-02T16:59:45.549Z,83.50
2023-04-02T17:03:26.316Z,83.22
2023-04-02T17:07:15.321Z,83.10
2023-04-02T17:11:02.939Z,82.88
2023-04-02T17:14:50.936Z,83.24
2023-04-02T17:18:52.701Z,83.62
2023-04-02T17:22:18.200Z,83.56
2023-04-02T17:26:07.144Z,83.58
2023-04-02T17:30:21.789Z,83.85
2023-04-02T17:33:46.341Z,83.79
2023-04-02T17:37:38.256Z,83.87
2023-04-02T17:40:52.117Z,83.79
2023-04-02T17:44:48.425Z,84.00
2023-04-02T17:48:17.925Z,84.09
2023-04-02T17:52:17.465Z,83.99
2023-04-02T17:55:44.553Z,83.90
2023-04-02T17:59:38.857Z,84.03
2023-04-02T18:03:31.495Z,83.89
2023-04-02T18:06:51.650Z,83.93
2023-04-02T18:10:27.243Z,83.94
2023-04-02T18:14:25.090Z,84.02
2023-04-02T18:18:15.048Z,83.62
2023-04-02T18:22:04.060Z,83.52
2023-04-02T18:26:02.238Z,83.40
2023-04-02T18:29:34.204Z,83.56
2023-04-02T18:33:49.584Z,83.21
2023-04-02T18:37:05.563Z,83.04
2023-04-02T18:41:01.103Z,83.39
2023-04-02T18:44:54.744Z,82.91
2023-04-02T18:48:46.877Z,82.90
2023-04-02T18:52:16.799Z,82.98
2023-04-02T18:56:06.109Z,82.85
2023-04-02T18:59:52.932Z,82.28
2023-04-02T19:03:41.109Z,82.32
2023-04-02T19:07:26.801Z,82.31
2023-04-02T19:11:16.745Z,82.55
2023-04-02T19:14:51.981Z,82.86
2023-04-02T19:18:53.616Z,82.54
2023-04-02T19:22:31.610Z,82.61
2023-04-02T19:26:17.233Z,82.63
2023-04-02T19:30:38.665Z,82.47
2023-04-02T19:33:46.056Z,82.60
2023-04-02T19:37:38.445Z,82.56
2023-04-02T19:40:58.838Z,82.33
2023-04-02T19:44:32.596Z,82.41
2023-04-02T19:48:49.477Z,82.31
2023-04-02T19:51:55.960Z,81.91
2023-04-02T19:55:32.776Z,82.11
2023-04-02T19:59:17.663Z,81.25
2023-04-02T20:03:02.801Z,80.69
2023-04-02T20:07:03.706Z,80.67
2023-04-02T20:10:26.370Z,80.48
2023-04-02T20:14:01.832Z,79.28
2023-04-02T20:17:56.413Z,79.38
2023-04-02T20:21:28.043Z,79.42
2023-04-02T20:25:02.708Z,79.25
2023-04-02T20:28:40.998Z,79.56
2023-04-02T20:32:43.075Z,79.54
2023-04-02T20:35:56.833Z,79.40
2023-04-02T20:39:30.761Z,79.51
2023-04-02T20:43:15.336Z,79.80
2023-04-02T20:47:03.099Z,79.64
2023-04-02T20:50:38.021Z,79.84
2023-04-02T20:54:23.272Z,79.71
2023-04-02T20:58:08.653Z,80.16
2023-04-02T21:01:53.198Z,80.27
2023-04-02T21:05:54.834Z,80.95
2023-04-02T21:09:17.388Z,80.86
2023-04-02T21:13:01.742Z,80.98
2023-04-02T21:16:56.062Z,81.02
2023-04-02T21:20:22.924Z,80.78
2023-04-02T21:24:07.438Z,80.58
2023-04-02T21:27:51.961Z,80.65
2023-04-02T21:31:37.179Z,80.16
2023-04-02T21:35:38.541Z,79.79
2023-04-02T21:39:03.044Z,79.56
2023-04-02T21:42:45.090Z,79.51
2023-04-02T21:46:30.405Z,79.36
2023-04-02T21:49:52.759Z,78.76
2023-04-02T21:53:35.712Z,78.13
2023-04-02T21:57:20.403Z,77.38
2023-04-02T22:01:07.139Z,76.97
2023-04-02T22:05:10.539Z,76.00
2023-04-02T22:08:31.443Z,75.56
2023-04-02T22:12:17.096Z,74.61
2023-04-02T22:15:53.553Z,74.12
2023-04-02T22:19:36.006Z,73.20
2023-04-02T22:23:20.647Z,72.19
2023-04-02T22:27:15.106Z,71.50
2023-04-02T22:30:46.350Z,71.09
2023-04-02T22:34:21.469Z,70.40
2023-04-02T22:37:57.407Z,70.84
2023-04-02T22:41:41.882Z,70.06
2023-04-02T22:45:27.325Z,70.64
2023-04-02T22:49:04.637Z,69.50
2023-04-02T22:52:59.104Z,69.08
2023-04-02T22:56:37.683Z,66.97
2023-04-02T23:00:06.375Z,66.40
2023-04-02T23:03:53.667Z,66.46
2023-04-02T23:07:20.160Z,66.20
2023-04-02T23:11:22.816Z,65.28
2023-04-02T23:14:42.282Z,65.27
2023-04-02T23:18:26.826Z,65.50
2023-04-02T23:22:21.470Z,64.08
2023-04-02T23:25:49.136Z,64.20
2023-04-02T23:29:51.339Z,64.46
2023-04-02T23:33:09.311Z,63.99
2023-04-02T23:36:53.959Z,63.31
2023-04-02T23:41:03.277Z,63.79
2023-04-02T23:44:16.118Z,62.62
2023-04-02T23:47:58.431Z,63.35
2023-04-02T23:51:41.519Z,63.61
2023-04-02T23:55:26.864Z,63.44
2023-04-02T23:59:03.715Z,63.88
